Terminal Aerodrome Forecast
Issued by NWS

Home | Current Version | Previous Version | Graphics & Text | Print | Product List | Glossary Off
Versions: 1 2 3 4 5 6 7 8 9 10 11 12 13 14 15 16 17 18 19

000
FTUS43 KMPX 181737
TAFAXN
TAF
KAXN 181737Z 1818/1918 23013KT P6SM OVC200
     FM190200 26012KT P6SM OVC060
     FM190500 29013KT P6SM OVC040
     FM190900 30014KT P6SM SCT090=

USA.gov is the U.S. government's official web portal to all federal, state and local government web resources and services.